Time;durP1;ratioP1;P1;durP2;ratioP2;P2;SDS_P1;SDS_P2;PMS_P1;PMS_P2;Temp;Humidity;BMP_temperature;BMP_pressure;BME280_temperature;BME280_humidity;BME280_pressure;Samples;Min_cycle;Max_cycle;Signal;HPM_P1;HPM_P2
2021/08/23 00:01:12;;;;;;;11.52;10.32;;;18.20;99.90;;;;;;5029752;28;20018;-34
2021/08/23 00:03:38;;;;;;;10.48;9.38;;;18.20;99.90;;;;;;5029876;28;20028;-34
2021/08/23 00:06:05;;;;;;;10.25;9.35;;;18.10;99.90;;;;;;5029630;28;20034;-34
2021/08/23 00:08:31;;;;;;;10.63;9.52;;;18.20;99.90;;;;;;5029978;28;20481;-34
2021/08/23 00:10:57;;;;;;;11.43;10.32;;;18.20;99.90;;;;;;5029214;28;20029;-34
2021/08/23 00:13:23;;;;;;;12.05;10.85;;;18.20;99.90;;;;;;5029546;28;20480;-34
2021/08/23 00:15:53;;;;;;;11.30;10.20;;;18.20;99.90;;;;;;5029620;28;20448;-34
2021/08/23 00:18:22;;;;;;;9.68;7.88;;;18.20;99.90;;;;;;5029764;28;20079;-34
2021/08/23 00:20:55;;;;;;;10.82;9.73;;;18.20;99.90;;;;;;5028477;28;20029;-34
2021/08/23 00:23:25;;;;;;;12.68;11.50;;;18.20;99.90;;;;;;5021104;28;20116;-34
2021/08/23 00:25:52;;;;;;;11.65;10.43;;;18.20;99.90;;;;;;5029348;28;20025;-34
2021/08/23 00:28:19;;;;;;;11.27;10.18;;;18.20;99.90;;;;;;5029058;28;20674;-34
2021/08/23 00:30:44;;;;;;;9.90;9.00;;;18.20;99.90;;;;;;5029618;28;20025;-34
2021/08/23 00:33:10;;;;;;;11.95;10.68;;;18.20;99.90;;;;;;5028775;28;20113;-34
2021/08/23 00:35:36;;;;;;;11.27;10.18;;;18.20;99.90;;;;;;5028091;28;20029;-34
2021/08/23 00:38:03;;;;;;;13.23;11.88;;;18.10;99.90;;;;;;5028493;28;20112;-34
2021/08/23 00:40:29;;;;;;;13.10;11.70;;;18.10;99.90;;;;;;5029584;28;20072;-34
2021/08/23 00:42:58;;;;;;;13.55;12.25;;;18.10;99.90;;;;;;5023955;28;20037;-34
2021/08/23 00:45:29;;;;;;;13.60;12.30;;;18.10;99.90;;;;;;5025570;28;20116;-34
2021/08/23 00:47:56;;;;;;;13.38;12.07;;;18.10;99.90;;;;;;5021138;28;20362;-34
2021/08/23 00:50:22;;;;;;;12.70;11.50;;;18.10;99.90;;;;;;5029117;28;20667;-34
2021/08/23 00:52:48;;;;;;;13.98;12.32;;;18.10;99.90;;;;;;5028012;28;20024;-34
2021/08/23 00:55:14;;;;;;;13.30;11.93;;;18.10;99.90;;;;;;5028783;28;20143;-34
2021/08/23 00:57:41;;;;;;;12.07;10.98;;;18.10;99.90;;;;;;5028798;28;20072;-34
2021/08/23 01:00:07;;;;;;;14.40;13.00;;;18.20;99.90;;;;;;5028619;28;20036;-34
2021/08/23 01:02:37;;;;;;;15.95;14.30;;;18.20;99.90;;;;;;5028232;28;20017;-34
2021/08/23 01:05:10;;;;;;;14.35;12.95;;;18.20;99.90;;;;;;5029087;28;20100;-34
2021/08/23 01:07:51;;;;;;;14.48;13.07;;;18.10;99.90;;;;;;5029324;28;20078;-34
2021/08/23 01:10:22;;;;;;;15.25;13.75;;;18.00;99.90;;;;;;5028378;28;20013;-34
2021/08/23 01:12:48;;;;;;;15.75;14.15;;;18.10;99.90;;;;;;5028175;28;20021;-34
2021/08/23 01:15:14;;;;;;;17.30;15.48;;;18.10;99.90;;;;;;5028645;28;20507;-34
2021/08/23 01:17:40;;;;;;;18.30;16.50;;;18.10;99.90;;;;;;5027898;28;20041;-34
2021/08/23 01:20:10;;;;;;;16.02;14.32;;;18.10;99.90;;;;;;5028537;28;20489;-34
2021/08/23 01:22:41;;;;;;;17.08;15.30;;;18.10;99.90;;;;;;5029317;28;20134;-35
2021/08/23 01:25:10;;;;;;;13.60;12.32;;;18.10;99.90;;;;;;5027562;28;20029;-34
2021/08/23 01:27:40;;;;;;;13.98;12.60;;;18.10;99.90;;;;;;5028688;28;20064;-34
2021/08/23 01:30:15;;;;;;;17.02;15.18;;;18.20;99.90;;;;;;5027950;28;20021;-34
2021/08/23 01:32:41;;;;;;;16.10;14.13;;;18.20;99.90;;;;;;5033593;28;20037;-34
2021/08/23 01:35:08;;;;;;;16.20;14.50;;;18.20;99.90;;;;;;5034814;28;20032;-34
2021/08/23 01:37:37;;;;;;;14.98;13.43;;;18.20;99.90;;;;;;5034972;28;20022;-34
2021/08/23 01:40:05;;;;;;;18.38;16.48;;;18.20;99.90;;;;;;5034463;28;20021;-34
2021/08/23 01:42:31;;;;;;;17.83;16.10;;;18.20;99.90;;;;;;5034883;28;20067;-34
2021/08/23 01:44:57;;;;;;;22.02;18.63;;;18.20;99.90;;;;;;5033459;28;20014;-34
2021/08/23 01:47:22;;;;;;;19.65;17.55;;;18.10;99.90;;;;;;5034652;28;20040;-34
2021/08/23 01:49:48;;;;;;;21.95;19.55;;;18.10;99.90;;;;;;5033859;28;20021;-34
2021/08/23 01:52:21;;;;;;;20.30;17.70;;;18.10;99.90;;;;;;5035041;28;20586;-34
2021/08/23 01:54:47;;;;;;;24.65;21.23;;;18.10;99.90;;;;;;5033966;28;20053;-34
2021/08/23 01:57:18;;;;;;;19.25;17.20;;;18.10;99.90;;;;;;5034709;28;20499;-34
2021/08/23 01:59:50;;;;;;;23.60;19.88;;;18.10;99.90;;;;;;5033843;28;20021;-34
2021/08/23 02:02:15;;;;;;;25.13;20.42;;;18.10;99.90;;;;;;5035157;28;20020;-34
2021/08/23 02:04:41;;;;;;;25.15;20.48;;;18.10;99.90;;;;;;5034334;28;20013;-34
2021/08/23 02:07:10;;;;;;;24.63;21.15;;;18.10;99.90;;;;;;5034227;28;20032;-34
2021/08/23 02:09:36;;;;;;;27.02;21.10;;;18.10;99.90;;;;;;5034427;28;20022;-35
2021/08/23 02:12:02;;;;;;;22.75;18.02;;;18.10;99.90;;;;;;5034014;28;20393;-34
2021/08/23 02:14:28;;;;;;;23.70;19.25;;;18.20;99.90;;;;;;5034272;28;20125;-34
2021/08/23 02:16:54;;;;;;;24.00;18.92;;;18.20;99.90;;;;;;5033953;28;20379;-34
2021/08/23 02:19:21;;;;;;;22.38;19.25;;;18.20;99.90;;;;;;5034919;28;20014;-34
2021/08/23 02:21:53;;;;;;;26.55;21.20;;;18.20;99.90;;;;;;5034046;28;20033;-35
2021/08/23 02:24:20;;;;;;;24.00;20.77;;;18.20;99.90;;;;;;5034678;28;20061;-34
2021/08/23 02:26:46;;;;;;;21.65;19.23;;;18.20;99.90;;;;;;5033450;28;20029;-34
2021/08/23 02:29:12;;;;;;;24.65;19.30;;;18.20;99.90;;;;;;5034777;28;20020;-38
2021/08/23 02:31:38;;;;;;;23.02;20.55;;;18.20;99.90;;;;;;5034292;28;20112;-40
2021/08/23 02:34:04;;;;;;;23.63;19.00;;;18.20;99.90;;;;;;5033434;28;20482;-44
2021/08/23 02:36:34;;;;;;;20.25;16.98;;;18.20;99.90;;;;;;5034246;28;20397;-42
2021/08/23 02:38:59;;;;;;;19.50;16.75;;;18.20;99.90;;;;;;5033795;28;20033;-39
2021/08/23 02:41:25;;;;;;;18.70;16.70;;;18.30;99.90;;;;;;5034286;28;20432;-44
2021/08/23 02:43:50;;;;;;;18.02;16.17;;;18.20;99.90;;;;;;5030680;28;20489;-43
2021/08/23 02:46:16;;;;;;;16.40;14.35;;;18.20;99.90;;;;;;5032069;28;20030;-39
2021/08/23 02:48:41;;;;;;;15.77;14.07;;;18.30;99.90;;;;;;5030485;28;20045;-42
2021/08/23 02:51:07;;;;;;;16.42;14.75;;;18.30;99.90;;;;;;5030786;28;20059;-40
2021/08/23 02:53:35;;;;;;;16.00;14.02;;;18.20;99.90;;;;;;5031097;28;20032;-42
2021/08/23 02:56:07;;;;;;;16.42;14.73;;;18.20;99.90;;;;;;5030021;28;20116;-45
2021/08/23 02:58:34;;;;;;;14.52;13.02;;;18.20;99.90;;;;;;5031106;28;20037;-40
2021/08/23 03:01:02;;;;;;;12.57;11.27;;;18.20;99.90;;;;;;5030606;28;20021;-35
2021/08/23 03:03:27;;;;;;;15.07;13.48;;;18.20;99.90;;;;;;5029811;28;20029;-40
2021/08/23 03:05:53;;;;;;;14.98;13.00;;;18.20;99.90;;;;;;5030390;28;20044;-40
2021/08/23 03:08:19;;;;;;;17.15;15.23;;;18.30;99.90;;;;;;5030586;28;20416;-42
2021/08/23 03:10:44;;;;;;;15.38;13.10;;;18.30;99.90;;;;;;5030682;28;20113;-43
2021/08/23 03:13:10;;;;;;;16.95;14.98;;;18.30;99.90;;;;;;5031111;28;20022;-39
2021/08/23 03:15:36;;;;;;;18.95;16.35;;;18.30;99.90;;;;;;5030039;28;20041;-41
2021/08/23 03:18:02;;;;;;;19.15;16.67;;;18.20;99.90;;;;;;5030457;28;20551;-41
2021/08/23 03:20:27;;;;;;;21.30;18.15;;;18.20;99.90;;;;;;5030592;28;20045;-42
2021/08/23 03:22:53;;;;;;;23.73;18.80;;;18.20;99.90;;;;;;5028724;28;20454;-41
2021/08/23 03:25:18;;;;;;;25.02;20.00;;;18.20;99.90;;;;;;5030445;28;20160;-43
2021/08/23 03:27:44;;;;;;;23.65;20.42;;;18.10;99.90;;;;;;5030021;28;20053;-44
2021/08/23 03:30:10;;;;;;;26.25;21.23;;;18.10;99.90;;;;;;5030274;28;20025;-43
2021/08/23 03:32:39;;;;;;;27.92;20.52;;;18.10;99.90;;;;;;5031162;28;20034;-39
2021/08/23 03:35:07;;;;;;;27.38;21.60;;;18.00;99.90;;;;;;5030027;28;20025;-40
2021/08/23 03:37:33;;;;;;;24.73;20.52;;;18.00;99.90;;;;;;5029800;28;20533;-42
2021/08/23 03:39:58;;;;;;;27.63;21.83;;;18.00;99.90;;;;;;5029680;28;20092;-40
2021/08/23 03:42:24;;;;;;;28.02;22.23;;;18.00;99.90;;;;;;5030540;28;20025;-43
2021/08/23 03:44:50;;;;;;;31.52;24.48;;;18.00;99.90;;;;;;5028783;28;20048;-43
2021/08/23 03:47:16;;;;;;;27.65;22.00;;;18.00;99.90;;;;;;5030649;28;20108;-44
2021/08/23 03:49:41;;;;;;;26.60;21.15;;;17.90;99.90;;;;;;5029878;28;20108;-42
2021/08/23 03:52:07;;;;;;;30.00;22.52;;;17.90;99.90;;;;;;5009719;28;20052;-40
2021/08/23 03:54:32;;;;;;;26.20;20.92;;;17.90;99.90;;;;;;5024145;28;20028;-41
2021/08/23 03:56:58;;;;;;;28.83;22.60;;;17.90;99.90;;;;;;5029209;28;20075;-42
2021/08/23 03:59:26;;;;;;;24.30;19.45;;;17.90;99.90;;;;;;5029492;28;20533;-42
2021/08/23 04:01:52;;;;;;;29.50;22.77;;;17.80;99.90;;;;;;5029080;28;20048;-39
2021/08/23 04:04:21;;;;;;;30.63;24.00;;;17.80;99.90;;;;;;5029418;28;20021;-41
2021/08/23 04:06:47;;;;;;;29.60;22.70;;;17.70;99.90;;;;;;5029042;28;20029;-42
2021/08/23 04:09:13;;;;;;;29.15;22.50;;;17.70;99.90;;;;;;5030719;28;20025;-37
2021/08/23 04:11:39;;;;;;;28.00;21.83;;;17.70;99.90;;;;;;5030072;28;20419;-40
2021/08/23 04:14:04;;;;;;;30.13;24.00;;;17.80;99.90;;;;;;5029522;28;20021;-38
2021/08/23 04:16:30;;;;;;;28.95;21.60;;;17.70;99.90;;;;;;5029365;28;20029;-38
2021/08/23 04:18:55;;;;;;;22.75;19.02;;;17.70;99.90;;;;;;5028295;28;20489;-40
2021/08/23 04:21:21;;;;;;;24.90;19.70;;;17.80;99.90;;;;;;5029854;28;20071;-39
2021/08/23 04:23:46;;;;;;;25.85;21.17;;;17.80;99.90;;;;;;5029253;28;20021;-41
2021/08/23 04:26:12;;;;;;;23.77;19.15;;;17.80;99.90;;;;;;5028785;28;20030;-42
2021/08/23 04:28:40;;;;;;;27.25;21.42;;;17.80;99.90;;;;;;5029007;28;20009;-40
2021/08/23 04:31:09;;;;;;;27.77;21.05;;;17.80;99.90;;;;;;5029191;28;20044;-41
2021/08/23 04:33:34;;;;;;;31.42;23.02;;;17.80;99.90;;;;;;5029009;28;20017;-41
2021/08/23 04:36:00;;;;;;;29.27;21.15;;;17.80;99.90;;;;;;5028849;28;20040;-43
2021/08/23 04:38:25;;;;;;;29.00;21.73;;;17.70;99.90;;;;;;5029610;28;20545;-43
2021/08/23 04:40:51;;;;;;;28.77;20.65;;;17.70;99.90;;;;;;5027907;28;20378;-42
2021/08/23 04:43:17;;;;;;;28.98;21.13;;;17.70;99.90;;;;;;5029361;28;20021;-43
2021/08/23 04:45:42;;;;;;;28.60;20.88;;;17.70;99.90;;;;;;5029161;28;20029;-44
2021/08/23 04:48:08;;;;;;;25.98;20.05;;;17.70;99.90;;;;;;5028415;28;20037;-43
2021/08/23 04:50:33;;;;;;;26.60;19.13;;;17.70;99.90;;;;;;5028819;28;20021;-37
2021/08/23 04:53:00;;;;;;;24.65;17.88;;;17.60;99.90;;;;;;5028836;28;20029;-42
2021/08/23 04:55:25;;;;;;;24.73;17.73;;;17.60;99.90;;;;;;5028942;28;20017;-41
2021/08/23 04:57:54;;;;;;;22.10;17.58;;;17.60;99.90;;;;;;5029055;28;20385;-42
2021/08/23 05:00:20;;;;;;;22.90;17.23;;;17.60;99.90;;;;;;5029008;28;20472;-42
2021/08/23 05:02:46;;;;;;;24.42;18.25;;;17.60;99.90;;;;;;5027374;28;20064;-43
2021/08/23 05:05:12;;;;;;;22.75;17.17;;;17.60;99.90;;;;;;5029182;28;20393;-44
2021/08/23 05:07:37;;;;;;;25.13;18.70;;;17.50;99.90;;;;;;5027775;28;20063;-42
2021/08/23 05:10:03;;;;;;;24.88;19.00;;;17.50;99.90;;;;;;5028475;28;20022;-40
2021/08/23 05:12:29;;;;;;;26.00;17.70;;;17.50;99.90;;;;;;5028791;28;20083;-39
2021/08/23 05:14:54;;;;;;;26.25;17.80;;;17.50;99.90;;;;;;5028274;28;20041;-40
2021/08/23 05:17:20;;;;;;;22.40;16.95;;;17.40;99.90;;;;;;5028415;28;20048;-41
2021/08/23 05:19:45;;;;;;;20.20;15.30;;;17.40;99.90;;;;;;5028308;28;20010;-39
2021/08/23 05:22:14;;;;;;;23.70;16.98;;;17.40;99.90;;;;;;5028570;28;20422;-41
2021/08/23 05:24:39;;;;;;;23.08;17.08;;;17.40;99.90;;;;;;5028916;28;20021;-42
2021/08/23 05:27:05;;;;;;;22.30;16.98;;;17.50;99.90;;;;;;5028281;28;20040;-39
2021/08/23 05:29:30;;;;;;;20.55;15.45;;;17.50;99.90;;;;;;5027827;28;20041;-41
2021/08/23 05:31:56;;;;;;;22.83;16.20;;;17.50;99.90;;;;;;5027740;28;20401;-44
2021/08/23 05:34:21;;;;;;;18.77;14.90;;;17.50;99.90;;;;;;5029551;28;20017;-44
2021/08/23 05:36:47;;;;;;;21.45;16.17;;;17.50;99.90;;;;;;5028159;28;20464;-41
2021/08/23 05:39:12;;;;;;;19.23;15.95;;;17.50;99.90;;;;;;5028554;28;20033;-43
2021/08/23 05:41:41;;;;;;;20.80;16.98;;;17.50;99.90;;;;;;5028264;28;20035;-42
2021/08/23 05:44:15;;;;;;;18.00;16.08;;;17.50;99.90;;;;;;5027820;28;20029;-42
2021/08/23 05:46:44;;;;;;;20.42;17.15;;;17.50;99.90;;;;;;5028079;28;20071;-43
2021/08/23 05:49:13;;;;;;;22.42;17.70;;;17.50;99.90;;;;;;5027475;28;20013;-44
2021/08/23 05:51:43;;;;;;;18.45;16.05;;;17.50;99.90;;;;;;5030027;28;20120;-44
2021/08/23 05:54:09;;;;;;;20.42;16.58;;;17.50;99.90;;;;;;5028086;28;20017;-41
2021/08/23 05:56:35;;;;;;;20.40;15.32;;;17.50;99.90;;;;;;5028315;28;20515;-38
2021/08/23 05:59:01;;;;;;;19.38;16.85;;;17.50;99.90;;;;;;5024281;28;20084;-43
2021/08/23 06:01:26;;;;;;;22.92;17.40;;;17.50;99.90;;;;;;5027139;28;20065;-40
2021/08/23 06:03:51;;;;;;;18.50;16.20;;;17.60;99.90;;;;;;5026714;28;20072;-42
2021/08/23 06:06:17;;;;;;;18.13;14.57;;;17.60;99.90;;;;;;5027929;28;20465;-39
2021/08/23 06:08:43;;;;;;;19.90;15.52;;;17.60;99.90;;;;;;5027041;28;20097;-39
2021/08/23 06:11:09;;;;;;;20.10;17.88;;;17.60;99.90;;;;;;5027581;28;20034;-41
2021/08/23 06:13:34;;;;;;;19.58;16.02;;;17.70;99.90;;;;;;5027046;28;20013;-41
2021/08/23 06:16:00;;;;;;;21.63;16.67;;;17.60;99.90;;;;;;5027340;28;20049;-41
2021/08/23 06:18:25;;;;;;;17.63;15.73;;;17.70;99.90;;;;;;5028796;28;20474;-42
2021/08/23 06:20:54;;;;;;;19.25;16.23;;;17.70;99.90;;;;;;5031787;28;20120;-39
2021/08/23 06:23:19;;;;;;;18.20;15.73;;;17.70;99.90;;;;;;5034573;28;20021;-40
2021/08/23 06:25:45;;;;;;;19.20;16.08;;;17.80;99.90;;;;;;5041846;28;20025;-41
2021/08/23 06:28:11;;;;;;;18.48;15.93;;;17.90;99.90;;;;;;5041928;28;20036;-40
2021/08/23 06:30:40;;;;;;;19.90;14.50;;;17.90;99.90;;;;;;5041378;28;20481;-42
2021/08/23 06:33:05;;;;;;;18.33;14.13;;;17.90;99.90;;;;;;5039789;28;20503;-41
2021/08/23 06:35:31;;;;;;;19.77;15.55;;;18.00;99.90;;;;;;5041589;28;20468;-36
2021/08/23 06:37:56;;;;;;;16.13;14.07;;;18.00;99.90;;;;;;5036857;28;20139;-40
2021/08/23 06:40:22;;;;;;;20.27;14.55;;;18.00;99.90;;;;;;5035345;28;20044;-37
2021/08/23 06:42:47;;;;;;;18.88;14.20;;;18.10;99.90;;;;;;5031485;28;20028;-42
2021/08/23 06:45:13;;;;;;;18.55;14.38;;;18.10;99.90;;;;;;5031926;28;20032;-41
2021/08/23 06:47:38;;;;;;;17.63;13.10;;;18.10;99.90;;;;;;5031379;28;20121;-40
2021/08/23 06:50:04;;;;;;;14.90;12.38;;;18.10;99.90;;;;;;5031078;28;20060;-38
2021/08/23 06:52:30;;;;;;;14.80;11.30;;;18.20;99.90;;;;;;5042035;28;20119;-40
2021/08/23 06:54:56;;;;;;;15.20;11.88;;;18.20;99.90;;;;;;5041916;28;20483;-39
2021/08/23 06:57:21;;;;;;;14.48;11.20;;;18.20;99.90;;;;;;5031814;28;20469;-40
2021/08/23 06:59:47;;;;;;;13.98;11.30;;;18.30;99.90;;;;;;5031063;28;20022;-42
2021/08/23 07:02:12;;;;;;;13.38;10.27;;;18.40;99.90;;;;;;5034111;28;20533;-39
2021/08/23 07:04:38;;;;;;;12.15;9.88;;;18.50;99.90;;;;;;5044176;28;20520;-39
2021/08/23 07:07:04;;;;;;;12.25;9.88;;;18.50;99.90;;;;;;5031419;28;20072;-39
2021/08/23 07:09:29;;;;;;;14.40;9.88;;;18.60;99.90;;;;;;5031567;28;20022;-41
2021/08/23 07:11:55;;;;;;;11.20;8.82;;;18.60;99.90;;;;;;5029202;28;20377;-41
2021/08/23 07:14:21;;;;;;;10.57;8.70;;;18.50;99.90;;;;;;5031234;28;20072;-38
2021/08/23 07:16:46;;;;;;;10.38;7.95;;;18.50;99.90;;;;;;5030303;28;20060;-40
2021/08/23 07:19:12;;;;;;;11.00;7.90;;;18.50;99.90;;;;;;5030938;28;20029;-41
2021/08/23 07:21:40;;;;;;;10.00;7.20;;;18.50;99.90;;;;;;5029796;28;20021;-40
2021/08/23 07:24:09;;;;;;;10.23;6.90;;;18.50;99.90;;;;;;5030789;28;20033;-42
2021/08/23 07:26:35;;;;;;;9.88;7.13;;;18.50;99.90;;;;;;5030648;28;20126;-39
2021/08/23 07:29:04;;;;;;;7.20;5.53;;;18.60;99.90;;;;;;5029293;28;20477;-42
2021/08/23 07:31:29;;;;;;;9.00;6.50;;;18.60;99.90;;;;;;5030613;28;20389;-40
2021/08/23 07:33:58;;;;;;;9.00;7.40;;;18.70;99.90;;;;;;5030111;28;20529;-40
2021/08/23 07:36:24;;;;;;;8.90;7.65;;;18.70;99.90;;;;;;5030129;28;20080;-39
2021/08/23 07:38:49;;;;;;;8.32;6.75;;;18.70;99.90;;;;;;5030752;28;20422;-42
2021/08/23 07:41:15;;;;;;;8.68;6.75;;;18.70;99.90;;;;;;5030289;28;20026;-43
2021/08/23 07:43:44;;;;;;;8.05;6.32;;;18.70;99.90;;;;;;5029599;28;20028;-38
2021/08/23 07:46:10;;;;;;;10.27;6.43;;;18.70;99.90;;;;;;5042367;28;20026;-44
2021/08/23 07:48:36;;;;;;;8.02;6.53;;;18.90;99.90;;;;;;5034464;28;20021;-43
2021/08/23 07:51:02;;;;;;;9.52;6.32;;;18.90;99.90;;;;;;5038192;28;20402;-44
2021/08/23 07:53:28;;;;;;;9.80;6.90;;;19.00;99.90;;;;;;5031619;28;20036;-43
2021/08/23 07:55:53;;;;;;;11.85;7.00;;;19.00;99.90;;;;;;5037844;28;20819;-43
2021/08/23 07:58:20;;;;;;;9.00;6.68;;;19.00;99.90;;;;;;5036774;28;20017;-42
2021/08/23 08:00:46;;;;;;;9.65;6.63;;;19.00;99.90;;;;;;5049570;28;20020;-41
2021/08/23 08:03:11;;;;;;;7.32;5.38;;;18.90;99.90;;;;;;5033479;28;20021;-44
2021/08/23 08:05:38;;;;;;;9.38;5.90;;;18.90;99.90;;;;;;5030273;28;20030;-40
2021/08/23 08:08:07;;;;;;;7.75;5.75;;;18.90;99.90;;;;;;5029880;28;20358;-42
2021/08/23 08:10:35;;;;;;;6.82;4.70;;;18.80;99.90;;;;;;5036001;28;20029;-44
2021/08/23 08:13:01;;;;;;;8.77;5.05;;;18.90;99.90;;;;;;5029096;28;20014;-42
2021/08/23 08:15:27;;;;;;;6.60;4.63;;;18.80;99.90;;;;;;5028225;28;20107;-38
2021/08/23 08:17:53;;;;;;;8.52;5.40;;;18.90;99.90;;;;;;5029275;28;20033;-40
2021/08/23 08:20:18;;;;;;;6.13;4.70;;;18.90;99.90;;;;;;5029831;28;20345;-42
2021/08/23 08:22:44;;;;;;;5.65;4.45;;;18.90;99.90;;;;;;5029503;28;20465;-43
2021/08/23 08:25:14;;;;;;;7.88;4.20;;;18.90;99.90;;;;;;5029109;28;20041;-42
2021/08/23 08:27:39;;;;;;;7.70;3.85;;;19.00;99.90;;;;;;5029475;28;20018;-43
2021/08/23 08:30:08;;;;;;;6.68;4.20;;;19.10;99.90;;;;;;5029913;28;20215;-40
2021/08/23 08:32:33;;;;;;;7.80;4.88;;;19.10;99.90;;;;;;5031178;28;20021;-41
2021/08/23 08:35:02;;;;;;;7.88;4.40;;;19.20;99.90;;;;;;5029208;28;20096;-39
2021/08/23 08:37:28;;;;;;;7.35;4.20;;;19.20;99.90;;;;;;5029891;28;20100;-39
2021/08/23 08:39:53;;;;;;;6.63;4.15;;;19.20;99.90;;;;;;5028765;28;20488;-42
2021/08/23 08:42:21;;;;;;;5.70;3.92;;;19.20;99.90;;;;;;5028754;28;20026;-44
2021/08/23 08:44:47;;;;;;;5.53;3.95;;;19.30;99.90;;;;;;5028402;28;20056;-41
2021/08/23 08:47:18;;;;;;;6.47;3.38;;;19.40;99.90;;;;;;5029081;28;20480;-42
2021/08/23 08:49:44;;;;;;;5.90;3.83;;;19.40;99.90;;;;;;5029349;28;20070;-43
2021/08/23 08:52:11;;;;;;;8.77;4.05;;;19.40;99.90;;;;;;5029131;28;20049;-42
2021/08/23 08:54:38;;;;;;;4.97;3.38;;;19.50;99.90;;;;;;5029158;28;20025;-37
2021/08/23 08:57:04;;;;;;;5.63;3.60;;;19.60;99.90;;;;;;5029156;28;20034;-41
2021/08/23 08:59:30;;;;;;;6.68;3.80;;;19.80;99.90;;;;;;5029628;28;20018;-41
2021/08/23 09:01:56;;;;;;;6.35;3.63;;;20.00;99.90;;;;;;5028583;28;20044;-44
2021/08/23 09:04:30;;;;;;;6.43;3.50;;;20.00;99.90;;;;;;5029346;28;20021;-43
2021/08/23 09:06:58;;;;;;;7.35;3.22;;;20.10;99.90;;;;;;5029117;28;20036;-40
2021/08/23 09:09:25;;;;;;;4.35;3.17;;;20.10;99.90;;;;;;5028620;28;20112;-41
2021/08/23 09:12:03;;;;;;;6.40;3.22;;;20.10;99.90;;;;;;5029297;28;20132;-43
2021/08/23 09:14:31;;;;;;;5.90;3.28;;;20.10;99.90;;;;;;5028628;28;20049;-38
2021/08/23 09:17:05;;;;;;;5.28;3.10;;;20.20;99.90;;;;;;5028629;28;20037;-42
2021/08/23 09:19:34;;;;;;;7.55;3.40;;;20.20;99.90;;;;;;5029505;28;20025;-41
2021/08/23 09:22:05;;;;;;;4.30;3.00;;;20.20;99.90;;;;;;5028426;28;20018;-44
2021/08/23 09:24:35;;;;;;;5.47;3.10;;;20.20;99.90;;;;;;5028978;28;20017;-43
2021/08/23 09:27:06;;;;;;;5.03;3.30;;;20.30;99.90;;;;;;5017584;28;20397;-39
2021/08/23 09:29:52;;;;;;;5.53;3.15;;;20.30;99.90;;;;;;5028426;28;20380;-40
2021/08/23 09:32:19;;;;;;;4.13;3.20;;;20.30;99.90;;;;;;5019085;28;20022;-43
2021/08/23 09:34:46;;;;;;;4.60;2.80;;;20.40;99.90;;;;;;5027802;28;20017;-42
2021/08/23 09:37:23;;;;;;;7.68;3.20;;;20.40;99.90;;;;;;5028645;28;20035;-43
2021/08/23 09:39:48;;;;;;;5.50;3.40;;;20.40;99.90;;;;;;5028553;28;20021;-41
2021/08/23 09:42:22;;;;;;;4.30;2.88;;;20.30;99.90;;;;;;5028515;28;20020;-44
2021/08/23 09:44:48;;;;;;;6.13;2.90;;;20.20;99.90;;;;;;5028644;28;20060;-42
2021/08/23 09:47:14;;;;;;;4.22;3.33;;;20.30;99.90;;;;;;5025651;28;20038;-43
2021/08/23 09:49:45;;;;;;;6.88;3.35;;;20.40;99.90;;;;;;5028335;28;20104;-41
2021/08/23 09:52:34;;;;;;;6.65;3.35;;;20.60;99.90;;;;;;5028603;28;20099;-44
2021/08/23 09:55:12;;;;;;;5.57;3.50;;;20.70;99.90;;;;;;5032140;28;20099;-41
2021/08/23 09:57:39;;;;;;;5.15;2.80;;;20.90;99.90;;;;;;5032105;28;20451;-42
2021/08/23 10:00:08;;;;;;;5.10;3.03;;;20.90;99.90;;;;;;5032374;28;20034;-42
2021/08/23 10:02:34;;;;;;;5.45;2.65;;;20.90;99.90;;;;;;5032659;28;20032;-43
2021/08/23 10:05:00;;;;;;;4.90;2.70;;;20.80;99.90;;;;;;5032076;28;20028;-42
2021/08/23 10:07:28;;;;;;;5.00;2.75;;;20.80;99.90;;;;;;5032234;28;20113;-38
2021/08/23 10:09:59;;;;;;;4.55;2.58;;;20.90;99.90;;;;;;5032011;28;20025;-43
2021/08/23 10:12:25;;;;;;;3.65;2.80;;;21.00;99.90;;;;;;5031453;28;20029;-42
2021/08/23 10:14:50;;;;;;;4.03;2.60;;;21.10;99.90;;;;;;5031387;28;20095;-43
2021/08/23 10:17:17;;;;;;;5.60;2.47;;;21.10;99.90;;;;;;5031760;28;20029;-39
2021/08/23 10:19:43;;;;;;;5.28;2.90;;;21.00;99.90;;;;;;5030679;28;20548;-41
2021/08/23 10:22:12;;;;;;;4.68;2.33;;;20.90;99.90;;;;;;5031483;28;20069;-41
2021/08/23 10:24:39;;;;;;;5.55;3.60;;;20.90;99.90;;;;;;5031189;28;20076;-43
2021/08/23 10:27:05;;;;;;;4.10;2.80;;;20.90;99.90;;;;;;5031657;28;20045;-38
2021/08/23 10:29:39;;;;;;;5.32;3.20;;;20.90;99.90;;;;;;5031571;28;20476;-38
2021/08/23 10:32:09;;;;;;;4.55;2.90;;;20.90;99.90;;;;;;5031251;28;20029;-44
2021/08/23 10:34:35;;;;;;;3.55;2.40;;;20.90;99.90;;;;;;5031358;28;20022;-42
2021/08/23 10:37:01;;;;;;;5.03;2.70;;;20.90;99.90;;;;;;5030663;28;20055;-42
2021/08/23 10:39:28;;;;;;;3.30;2.95;;;20.90;99.90;;;;;;5031359;28;20388;-45
2021/08/23 10:41:56;;;;;;;4.82;2.78;;;20.90;99.90;;;;;;5031049;28;20053;-45
2021/08/23 10:44:30;;;;;;;6.70;2.80;;;20.90;99.90;;;;;;5031214;28;20075;-38
2021/08/23 10:47:06;;;;;;;3.65;2.42;;;20.90;99.90;;;;;;5030718;28;20548;-42
2021/08/23 10:49:57;;;;;;;3.70;2.70;;;21.00;99.90;;;;;;5031371;28;20028;-45
2021/08/23 10:52:33;;;;;;;4.17;2.53;;;21.10;99.90;;;;;;5031477;28;20489;-44
2021/08/23 10:54:59;;;;;;;3.70;2.95;;;21.10;99.90;;;;;;5020603;28;20389;-45
2021/08/23 10:57:24;;;;;;;5.18;2.60;;;21.10;99.70;;;;;;5031117;28;20497;-43
2021/08/23 10:59:51;;;;;;;4.78;2.92;;;21.10;99.90;;;;;;5030669;28;20677;-41
2021/08/23 11:02:30;;;;;;;3.60;2.42;;;21.10;99.60;;;;;;5031272;28;20393;-45
2021/08/23 11:05:17;;;;;;;2.85;2.20;;;21.20;99.90;;;;;;5027076;28;20545;-40
2021/08/23 11:07:47;;;;;;;3.58;2.88;;;21.30;99.90;;;;;;5031094;28;20071;-39
2021/08/23 11:10:22;;;;;;;3.15;2.05;;;21.40;99.40;;;;;;5031364;28;20579;-42
2021/08/23 11:12:56;;;;;;;3.97;2.20;;;21.60;99.30;;;;;;5030057;28;20112;-41
2021/08/23 11:15:26;;;;;;;4.80;2.40;;;21.80;99.00;;;;;;5030208;28;20045;-42
2021/08/23 11:18:17;;;;;;;3.40;2.10;;;21.90;98.10;;;;;;5030826;28;20037;-44
2021/08/23 11:20:45;;;;;;;3.83;1.83;;;21.80;98.00;;;;;;5021911;28;20032;-45
2021/08/23 11:23:13;;;;;;;6.28;1.80;;;21.80;97.50;;;;;;5013019;28;20133;-42
2021/08/23 11:26:01;;;;;;;3.78;2.17;;;21.70;97.90;;;;;;5030991;28;20037;-42
2021/08/23 11:28:30;;;;;;;4.60;2.40;;;21.60;97.70;;;;;;5035230;28;20427;-44
2021/08/23 11:30:58;;;;;;;3.42;2.05;;;21.60;97.60;;;;;;5040472;28;20682;-44
2021/08/23 11:33:27;;;;;;;4.30;2.15;;;21.50;97.30;;;;;;5040967;28;20018;-43
2021/08/23 11:35:53;;;;;;;5.10;2.33;;;21.50;97.90;;;;;;5025305;28;20037;-44
2021/08/23 11:38:27;;;;;;;3.45;1.80;;;21.60;97.80;;;;;;5030320;28;20079;-39
2021/08/23 11:40:52;;;;;;;6.93;2.17;;;21.70;98.00;;;;;;5030043;28;20018;-40
2021/08/23 11:43:18;;;;;;;3.72;1.77;;;21.90;98.00;;;;;;5029870;28;20022;-39
2021/08/23 11:45:46;;;;;;;3.40;1.92;;;21.90;98.00;;;;;;5036105;28;20044;-41
2021/08/23 11:48:11;;;;;;;3.53;2.00;;;22.00;98.00;;;;;;5039169;28;20025;-37
2021/08/23 11:50:37;;;;;;;3.72;1.83;;;22.10;97.90;;;;;;5037589;28;20044;-37
2021/08/23 11:53:05;;;;;;;2.80;1.83;;;22.10;97.90;;;;;;5038697;28;20096;-36
2021/08/23 11:55:43;;;;;;;3.25;1.88;;;22.20;97.80;;;;;;5040536;28;20057;-38
2021/08/23 11:58:14;;;;;;;6.38;2.28;;;22.30;97.40;;;;;;5027088;28;20037;-38
2021/08/23 12:00:41;;;;;;;2.20;1.83;;;22.40;97.10;;;;;;5029168;28;20053;-39
2021/08/23 12:03:10;;;;;;;3.55;1.98;;;22.50;97.20;;;;;;5028964;28;20155;-38
2021/08/23 12:05:47;;;;;;;5.25;2.10;;;22.50;97.20;;;;;;5029421;28;20101;-42
2021/08/23 12:08:24;;;;;;;2.80;2.05;;;22.40;96.90;;;;;;5030225;28;20551;-40
2021/08/23 12:11:03;;;;;;;1.70;1.48;;;22.30;97.10;;;;;;5029186;28;20464;-40
2021/08/23 12:13:37;;;;;;;3.53;1.92;;;22.20;97.30;;;;;;5029718;28;20491;-42
2021/08/23 12:16:08;;;;;;;3.97;2.05;;;22.30;97.30;;;;;;5028990;28;20045;-42
2021/08/23 12:18:43;;;;;;;2.60;1.90;;;22.40;97.30;;;;;;5029648;28;20094;-42
2021/08/23 12:21:20;;;;;;;2.45;2.00;;;22.60;97.30;;;;;;5029058;28;20499;-41
2021/08/23 12:24:02;;;;;;;3.13;1.90;;;22.70;97.00;;;;;;5029772;28;20025;-42
2021/08/23 12:26:35;;;;;;;3.90;1.85;;;22.70;96.60;;;;;;5029361;28;20129;-42
2021/08/23 12:29:25;;;;;;;1.95;1.50;;;22.70;96.90;;;;;;5029543;28;20017;-42
2021/08/23 12:31:58;;;;;;;3.22;1.70;;;22.50;96.70;;;;;;5028707;28;20033;-45
2021/08/23 12:34:28;;;;;;;4.25;2.00;;;22.50;96.90;;;;;;5029642;28;20057;-45
2021/08/23 12:36:56;;;;;;;3.58;1.88;;;22.40;97.10;;;;;;5028242;28;20068;-45
2021/08/23 12:39:22;;;;;;;4.22;2.33;;;22.50;96.90;;;;;;5029462;28;20017;-41